Seiryu — JL6546 — position and weather

sailwx.info

Track history (hours):
 
Tides and Currents Weather Stations Pressure Air Temp Water Temp Dewpoint Dewpoint Depression Visibility Wind Speed Wind Dir Waves Ship Positions

Seiryu

Last reported at 2017-Oct-15 15:30 UTC. Time now 2017-Oct-22 23:02 UTC.
Position N 34°49' E 139°09'.

Length 74 m; draft 4.5 m.

Type: Ship (hazmat cat C). MMSI: 431500624.

Date/timePositionNaut miles runAvg speedWind from/ knotsBaromVisibWave heightAir tempDewpointWater temp
2017-Oct-15 15:30N 34°49' E 139°09'510.2
2017-Oct-15 14:59N 34°53' E 139°13'9 9.0
2017-Oct-15 14:00N 34°58' E 139°22'5 9.3
2017-Oct-15 13:30N 35°01' E 139°27'5 9.9
2017-Oct-15 13:01N 35°03' E 139°32'611.1
2017-Oct-15 12:30N 35°06' E 139°38'612.0
2017-Oct-15 12:01N 35°10' E 139°44'611.4
2017-Oct-15 11:31N 35°15' E 139°46'611.2
2017-Oct-15 11:00N 35°20' E 139°42'611.0
2017-Oct-15 10:30N 35°25' E 139°42'4 8.0
2017-Oct-15 10:01N 35°29' E 139°40'0 0.0
2017-Oct-15 09:31N 35°29' E 139°40'0 0.0
2017-Oct-15 09:00N 35°29' E 139°40'0 0.0
2017-Oct-15 08:31N 35°29' E 139°40'0 0.0
2017-Oct-15 08:00N 35°29' E 139°40'0 0.0
2017-Oct-15 07:30N 35°29' E 139°40'0 0.0
2017-Oct-15 07:01N 35°29' E 139°40'0 0.0
2017-Oct-15 06:31N 35°29' E 139°40'0 0.0
2017-Oct-15 06:01N 35°29' E 139°40'0 0.0
2017-Oct-15 05:31N 35°29' E 139°40'0 0.0
2017-Oct-15 05:01N 35°29' E 139°40'4 8.6
2017-Oct-15 04:30N 35°25' E 139°43'5 9.0
2017-Oct-15 04:00N 35°21' E 139°43'510.8
2017-Oct-15 03:31N 35°16' E 139°46'511.0
2017-Oct-15 03:01N 35°11' E 139°46'611.2
2017-Oct-15 02:30N 35°05' E 139°45'611.3
2017-Oct-15 02:00N 35°01' E 139°39'611.6
2017-Oct-15 01:30N 34°58' E 139°34'612.3
2017-Oct-15 00:59N 34°55' E 139°27'15 0.4
2017-Oct-13 09:58N 34°46' E 139°13'11 9.7
2017-Oct-13 08:51N 34°51' E 139°24'611.7
2017-Oct-13 08:22N 34°52' E 139°31'611.9
2017-Oct-13 07:54N 34°51' E 139°38'510.6
2017-Oct-13 07:26N 34°52' E 139°44'  
2017-Oct-09 12:40N 34°56' E 140°03'211.4
2017-Oct-09 12:30N 34°55' E 140°01'811.1
2017-Oct-09 11:47N 34°52' E 139°52'411.9
2017-Oct-09 11:27N 34°52' E 139°47'612.5
2017-Oct-09 11:00N 34°57' E 139°44'510.7
2017-Oct-09 10:30N 35°02' E 139°43'510.2
2017-Oct-09 10:00N 35°07' E 139°45'510.9
2017-Oct-09 09:30N 35°12' E 139°46'510.6
2017-Oct-09 09:00N 35°17' E 139°45'510.8
2017-Oct-09 08:30N 35°23' E 139°42'5 9.2
2017-Oct-09 08:00N 35°25' E 139°47'5 1.1
2017-Oct-09 03:45N 35°22' E 139°51'1 6.3
2017-Oct-09 03:30N 35°22' E 139°49'5 9.1
2017-Oct-09 03:00N 35°19' E 139°44'510.9
2017-Oct-09 02:30N 35°14' E 139°47'611.4
2017-Oct-09 02:00N 35°09' E 139°47'612.1
2017-Oct-09 01:30N 35°03' E 139°47'4 8.9
2017-Oct-09 01:00N 34°59' E 139°51'0 0.0
2017-Oct-09 00:30N 34°59' E 139°51'0 0.0
2017-Oct-09 00:00N 34°59' E 139°51'0 0.0
2017-Oct-08 23:30N 34°59' E 139°51'0 0.0
2017-Oct-08 23:00N 34°59' E 139°51'0 0.0
2017-Oct-08 22:30N 34°59' E 139°51'0 0.0
2017-Oct-08 22:00N 34°59' E 139°51'0 0.0
2017-Oct-08 21:30N 34°59' E 139°51'1 1.6
2017-Oct-08 21:00N 34°60' E 139°50'0 0.1
2017-Oct-08 20:30N 34°60' E 139°50'0 0.0
2017-Oct-08 20:00N 34°60' E 139°50'0 0.0
2017-Oct-08 19:30N 34°60' E 139°50'0 0.1
2017-Oct-08 19:00N 34°60' E 139°50'0 0.0
2017-Oct-08 18:30N 34°60' E 139°50'0 0.0
2017-Oct-08 18:00N 34°60' E 139°50'0 0.0
2017-Oct-08 17:30N 34°60' E 139°50'0 0.0
2017-Oct-08 17:00N 34°60' E 139°50'0 0.1
2017-Oct-08 16:30N 34°60' E 139°50'0 0.1
2017-Oct-08 16:00N 34°60' E 139°50'3 5.6
2017-Oct-08 15:30N 34°60' E 139°47'5 9.9
2017-Oct-08 15:00N 34°59' E 139°41'510.3
2017-Oct-08 14:30N 34°57' E 139°35'  
Track history (hours):
 
Tides and Currents Weather Stations Pressure Air Temp Water Temp Dewpoint Dewpoint Depression Visibility Wind Speed Wind Dir Waves Ship Positions

Seiryu

Last reported at 2017-Oct-15 15:30 UTC. Time now 2017-Oct-22 23:02 UTC.
Position N 34°49' E 139°09'.

Length 74 m; draft 4.5 m.

Type: Ship (hazmat cat C). MMSI: 431500624.

Date/timePositionNaut miles runAvg speedWind from/ knotsBaromVisibWave heightAir tempDewpointWater temp
2017-Oct-15 15:30N 34°49' E 139°09'510.2
2017-Oct-15 14:59N 34°53' E 139°13'9 9.0
2017-Oct-15 14:00N 34°58' E 139°22'5 9.3
2017-Oct-15 13:30N 35°01' E 139°27'5 9.9
2017-Oct-15 13:01N 35°03' E 139°32'611.1
2017-Oct-15 12:30N 35°06' E 139°38'612.0
2017-Oct-15 12:01N 35°10' E 139°44'611.4
2017-Oct-15 11:31N 35°15' E 139°46'611.2
2017-Oct-15 11:00N 35°20' E 139°42'611.0
2017-Oct-15 10:30N 35°25' E 139°42'4 8.0
2017-Oct-15 10:01N 35°29' E 139°40'0 0.0
2017-Oct-15 09:31N 35°29' E 139°40'0 0.0
2017-Oct-15 09:00N 35°29' E 139°40'0 0.0
2017-Oct-15 08:31N 35°29' E 139°40'0 0.0
2017-Oct-15 08:00N 35°29' E 139°40'0 0.0
2017-Oct-15 07:30N 35°29' E 139°40'0 0.0
2017-Oct-15 07:01N 35°29' E 139°40'0 0.0
2017-Oct-15 06:31N 35°29' E 139°40'0 0.0
2017-Oct-15 06:01N 35°29' E 139°40'0 0.0
2017-Oct-15 05:31N 35°29' E 139°40'0 0.0
2017-Oct-15 05:01N 35°29' E 139°40'4 8.6
2017-Oct-15 04:30N 35°25' E 139°43'5 9.0
2017-Oct-15 04:00N 35°21' E 139°43'510.8
2017-Oct-15 03:31N 35°16' E 139°46'511.0
2017-Oct-15 03:01N 35°11' E 139°46'611.2
2017-Oct-15 02:30N 35°05' E 139°45'611.3
2017-Oct-15 02:00N 35°01' E 139°39'611.6
2017-Oct-15 01:30N 34°58' E 139°34'612.3
2017-Oct-15 00:59N 34°55' E 139°27'15 0.4
2017-Oct-13 09:58N 34°46' E 139°13'11 9.7
2017-Oct-13 08:51N 34°51' E 139°24'611.7
2017-Oct-13 08:22N 34°52' E 139°31'611.9
2017-Oct-13 07:54N 34°51' E 139°38'510.6
2017-Oct-13 07:26N 34°52' E 139°44'  
2017-Oct-09 12:40N 34°56' E 140°03'211.4
2017-Oct-09 12:30N 34°55' E 140°01'811.1
2017-Oct-09 11:47N 34°52' E 139°52'411.9
2017-Oct-09 11:27N 34°52' E 139°47'612.5
2017-Oct-09 11:00N 34°57' E 139°44'510.7
2017-Oct-09 10:30N 35°02' E 139°43'510.2
2017-Oct-09 10:00N 35°07' E 139°45'510.9
2017-Oct-09 09:30N 35°12' E 139°46'510.6
2017-Oct-09 09:00N 35°17' E 139°45'510.8
2017-Oct-09 08:30N 35°23' E 139°42'5 9.2
2017-Oct-09 08:00N 35°25' E 139°47'5 1.1
2017-Oct-09 03:45N 35°22' E 139°51'1 6.3
2017-Oct-09 03:30N 35°22' E 139°49'5 9.1
2017-Oct-09 03:00N 35°19' E 139°44'510.9
2017-Oct-09 02:30N 35°14' E 139°47'611.4
2017-Oct-09 02:00N 35°09' E 139°47'612.1
2017-Oct-09 01:30N 35°03' E 139°47'4 8.9
2017-Oct-09 01:00N 34°59' E 139°51'0 0.0
2017-Oct-09 00:30N 34°59' E 139°51'0 0.0
2017-Oct-09 00:00N 34°59' E 139°51'0 0.0
2017-Oct-08 23:30N 34°59' E 139°51'0 0.0
2017-Oct-08 23:00N 34°59' E 139°51'0 0.0
2017-Oct-08 22:30N 34°59' E 139°51'0 0.0
2017-Oct-08 22:00N 34°59' E 139°51'0 0.0
2017-Oct-08 21:30N 34°59' E 139°51'1 1.6
2017-Oct-08 21:00N 34°60' E 139°50'0 0.1
2017-Oct-08 20:30N 34°60' E 139°50'0 0.0
2017-Oct-08 20:00N 34°60' E 139°50'0 0.0
2017-Oct-08 19:30N 34°60' E 139°50'0 0.1
2017-Oct-08 19:00N 34°60' E 139°50'0 0.0
2017-Oct-08 18:30N 34°60' E 139°50'0 0.0
2017-Oct-08 18:00N 34°60' E 139°50'0 0.0
2017-Oct-08 17:30N 34°60' E 139°50'0 0.0
2017-Oct-08 17:00N 34°60' E 139°50'0 0.1
2017-Oct-08 16:30N 34°60' E 139°50'0 0.1
2017-Oct-08 16:00N 34°60' E 139°50'3 5.6
2017-Oct-08 15:30N 34°60' E 139°47'5 9.9
2017-Oct-08 15:00N 34°59' E 139°41'510.3
2017-Oct-08 14:30N 34°57' E 139°35'  

Dump ship's entire track history